LTAG/ADF METAR and TAF weather

Enter ICAO airport designator
Station Type Date Time Source
LTAG METAR 2022/01/25 04:50 UTC NOAA

LTAG 250450Z 35008KT 9999 SCT035 BKN100 03/M06 Q1021 NOSIG


Station Type Date Time Source
LTAG Decoded METAR 2022/01/25 04:50 UTC NOAA

Adana / Incirlik, Turkey (LTAG) 37-00N 035-25E 66M
Jan 24, 2022 - 11:50 PM EST / 2022.01.25 0450 UTC
Wind: from the N (350 degrees) at 9 MPH (8 KT):0
Visibility: greater than 7 mile(s):0
Sky conditions: mostly cloudy
Temperature: 37 F (3 C)
Dew Point: 21 F (-6 C)
Relative Humidity: 51%
Pressure (altimeter): 30.15 in. Hg (1021 hPa)
ob: LTAG 250450Z 35008KT 9999 SCT035 BKN100 03/M06 Q1021 NOSIG
cycle: 5

Station Type Date Time Source
LTAG TAF 2022/01/25 06:03 UTC NOAA

TAF TAF LTAG 250440Z 2506/2606 03009KT 9999 SCT030 BKN100
BECMG 2510/2512 -SHRA BKN030 BKN090
TEMPO 2514/2517 SHRA
TEMPO 2517/2520 SHRA
TEMPO 2520/2524 01015G25KT
BECMG 2523/2602 SCT030 BKN090

Example: see airport list